createdAt,value
2018-07-06T00:01:11.465Z,2.60
2018-07-06T00:04:32.989Z,3.60
2018-07-06T00:07:54.579Z,3.43
2018-07-06T00:11:16.151Z,3.73
2018-07-06T00:14:37.420Z,3.80
2018-07-06T00:17:59.049Z,3.57
2018-07-06T00:21:20.792Z,3.33
2018-07-06T00:24:42.383Z,4.07
2018-07-06T00:28:03.949Z,4.00
2018-07-06T00:31:25.537Z,4.10
2018-07-06T00:34:46.833Z,3.87
2018-07-06T00:38:08.201Z,4.17
2018-07-06T00:41:29.572Z,4.37
2018-07-06T00:44:45.000Z,4.23
2018-07-06T00:48:06.438Z,4.00
2018-07-06T00:51:27.950Z,3.87
2018-07-06T00:54:49.259Z,4.00
2018-07-06T00:58:10.811Z,4.17
2018-07-06T01:01:32.279Z,4.63
2018-07-06T01:04:53.599Z,4.37
2018-07-06T01:08:14.916Z,4.37
2018-07-06T01:11:36.381Z,5.07
2018-07-06T01:14:57.846Z,5.17
2018-07-06T01:18:19.465Z,4.80
2018-07-06T01:21:41.004Z,4.93
2018-07-06T01:25:02.393Z,4.70
2018-07-06T01:28:23.901Z,4.93
2018-07-06T01:31:45.376Z,4.73
2018-07-06T01:35:06.613Z,4.73
2018-07-06T01:38:28.457Z,5.13
2018-07-06T01:41:49.775Z,4.67
2018-07-06T01:45:11.004Z,5.33
2018-07-06T01:48:32.487Z,4.97
2018-07-06T01:51:54.381Z,5.13
2018-07-06T01:55:15.829Z,6.07
2018-07-06T01:58:37.240Z,5.30
2018-07-06T02:01:58.864Z,5.00
2018-07-06T02:05:20.256Z,5.03
2018-07-06T02:08:41.733Z,5.00
2018-07-06T02:12:03.167Z,5.37
2018-07-06T02:15:24.548Z,4.67
2018-07-06T02:18:46.077Z,5.30
2018-07-06T02:22:07.418Z,5.03
2018-07-06T02:25:28.931Z,4.97
2018-07-06T02:28:50.422Z,5.17
2018-07-06T02:32:11.801Z,4.60
2018-07-06T02:35:33.250Z,4.80
2018-07-06T02:38:54.697Z,4.97
2018-07-06T02:42:16.209Z,5.20
2018-07-06T02:45:37.493Z,5.07
2018-07-06T02:48:58.855Z,4.90
2018-07-06T02:52:20.410Z,5.10
2018-07-06T02:55:43.681Z,5.50
2018-07-06T02:59:05.203Z,4.93
2018-07-06T03:02:26.748Z,5.00
2018-07-06T03:05:48.120Z,5.70
2018-07-06T03:09:09.477Z,4.93
2018-07-06T03:12:31.044Z,6.03
2018-07-06T03:15:52.565Z,5.17
2018-07-06T03:19:14.115Z,5.23
2018-07-06T03:22:35.608Z,5.77
2018-07-06T03:25:57.014Z,5.60
2018-07-06T03:29:18.323Z,5.37
2018-07-06T03:32:39.736Z,5.47
2018-07-06T03:36:01.154Z,5.37
2018-07-06T03:39:22.464Z,5.17
2018-07-06T03:42:43.923Z,5.90
2018-07-06T03:46:05.237Z,5.97
2018-07-06T03:49:26.846Z,5.73
2018-07-06T03:52:48.292Z,6.67
2018-07-06T03:56:09.778Z,6.13
2018-07-06T03:59:31.076Z,6.17
2018-07-06T04:02:52.418Z,6.17
2018-07-06T04:06:13.881Z,5.67
2018-07-06T04:09:35.318Z,6.23
2018-07-06T04:12:56.957Z,6.37
2018-07-06T04:16:18.542Z,6.47
2018-07-06T04:19:40.079Z,5.37
2018-07-06T04:23:01.549Z,5.43
2018-07-06T04:26:22.950Z,5.83
2018-07-06T04:29:44.382Z,4.53
2018-07-06T04:33:05.808Z,5.53
2018-07-06T04:36:27.215Z,5.20
2018-07-06T04:39:48.545Z,4.60
2018-07-06T04:43:09.981Z,4.43
2018-07-06T04:46:31.367Z,4.63
2018-07-06T04:49:52.691Z,4.80
2018-07-06T04:53:14.332Z,4.87
2018-07-06T04:56:36.018Z,5.07
2018-07-06T04:59:57.401Z,4.90
2018-07-06T05:03:18.876Z,6.00
2018-07-06T05:06:40.534Z,5.23
2018-07-06T05:10:02.192Z,4.87
2018-07-06T05:13:23.582Z,5.17
2018-07-06T05:16:45.075Z,5.13
2018-07-06T05:20:06.269Z,4.43
2018-07-06T05:23:27.545Z,4.10
2018-07-06T05:26:48.716Z,5.27
2018-07-06T05:30:10.014Z,4.10
2018-07-06T05:33:31.421Z,3.80
2018-07-06T05:36:52.958Z,4.47
2018-07-06T05:40:14.487Z,3.90
2018-07-06T05:43:35.975Z,4.80
2018-07-06T05:46:57.717Z,4.53
2018-07-06T05:50:19.130Z,3.67
2018-07-06T05:53:40.584Z,4.77
2018-07-06T05:57:01.938Z,4.10
2018-07-06T06:00:23.312Z,4.30
2018-07-06T06:03:44.712Z,3.60
2018-07-06T06:07:06.075Z,3.87
2018-07-06T06:10:10.372Z,4.00
2018-07-06T06:13:14.712Z,4.77
2018-07-06T06:16:19.237Z,3.80
2018-07-06T06:19:23.544Z,3.53
2018-07-06T06:22:27.946Z,4.30
2018-07-06T06:25:32.194Z,3.53
2018-07-06T06:28:36.809Z,4.23
2018-07-06T06:31:41.141Z,4.03
2018-07-06T06:34:45.473Z,3.80
2018-07-06T06:37:49.917Z,3.30
2018-07-06T06:40:54.177Z,3.30
2018-07-06T06:43:58.566Z,3.37
2018-07-06T06:47:02.879Z,3.83
2018-07-06T06:50:07.287Z,3.57
2018-07-06T06:53:11.713Z,3.60
2018-07-06T06:56:16.020Z,3.23
2018-07-06T06:59:20.382Z,3.57
2018-07-06T07:02:24.817Z,3.03
2018-07-06T07:05:29.311Z,3.40
2018-07-06T07:08:33.755Z,3.63
2018-07-06T07:11:38.103Z,3.73
2018-07-06T07:14:42.196Z,3.07
2018-07-06T07:17:46.803Z,3.07
2018-07-06T07:20:51.089Z,3.37
2018-07-06T07:23:55.764Z,3.40
2018-07-06T07:27:01.037Z,3.20
2018-07-06T07:30:05.376Z,4.00
2018-07-06T07:33:09.695Z,2.97
2018-07-06T07:36:14.073Z,2.73
2018-07-06T07:39:18.374Z,2.73
2018-07-06T07:42:22.741Z,2.77
2018-07-06T07:45:27.118Z,2.30
2018-07-06T07:48:31.543Z,3.10
2018-07-06T07:52:07.173Z,2.70
2018-07-06T07:55:11.504Z,3.27
2018-07-06T07:58:15.899Z,2.60
2018-07-06T08:01:20.360Z,3.33
2018-07-06T08:04:24.692Z,3.23
2018-07-06T08:07:29.214Z,2.40
2018-07-06T08:10:33.605Z,2.57
2018-07-06T08:13:37.969Z,2.93
2018-07-06T08:16:42.364Z,2.50
2018-07-06T08:19:46.754Z,2.93
2018-07-06T08:22:51.183Z,2.40
2018-07-06T08:25:55.527Z,3.23
2018-07-06T08:28:59.858Z,2.13
2018-07-06T08:32:04.261Z,3.03
2018-07-06T08:35:25.785Z,3.50
2018-07-06T08:38:30.112Z,3.27
2018-07-06T08:41:34.633Z,2.53
2018-07-06T08:44:38.939Z,2.53
2018-07-06T08:47:43.860Z,2.50
2018-07-06T08:50:48.209Z,2.67
2018-07-06T08:53:52.616Z,2.40
2018-07-06T08:56:56.949Z,2.33
2018-07-06T09:00:01.524Z,2.50
2018-07-06T09:03:06.627Z,3.03
2018-07-06T09:06:11.029Z,2.60
2018-07-06T09:09:15.552Z,2.17
2018-07-06T09:12:20.004Z,3.03
2018-07-06T09:15:24.421Z,2.90
2018-07-06T09:18:28.828Z,2.63
2018-07-06T09:21:33.093Z,3.00
2018-07-06T09:24:37.461Z,2.70
2018-07-06T09:27:41.872Z,2.63
2018-07-06T09:30:46.199Z,2.77
2018-07-06T09:33:50.553Z,2.40
2018-07-06T09:36:55.001Z,2.70
2018-07-06T09:39:59.368Z,3.30
2018-07-06T09:43:03.666Z,3.33
2018-07-06T09:46:07.977Z,2.73
2018-07-06T09:49:12.326Z,3.03
2018-07-06T09:52:16.612Z,2.63
2018-07-06T09:55:20.964Z,2.90
2018-07-06T09:58:25.483Z,2.50
2018-07-06T10:01:29.784Z,2.30
2018-07-06T10:04:34.181Z,2.87
2018-07-06T10:07:38.510Z,2.63
2018-07-06T10:10:42.830Z,2.77
2018-07-06T10:13:47.203Z,2.20
2018-07-06T10:16:51.521Z,2.70
2018-07-06T10:19:55.885Z,2.60
2018-07-06T10:23:00.225Z,1.97
2018-07-06T10:26:04.545Z,2.90
2018-07-06T10:29:35.780Z,2.17
2018-07-06T10:32:40.133Z,2.47
2018-07-06T10:35:44.596Z,2.57
2018-07-06T10:38:48.915Z,2.33
2018-07-06T10:41:53.312Z,2.60
2018-07-06T10:44:57.727Z,2.77
2018-07-06T10:48:01.996Z,2.60
2018-07-06T10:51:06.886Z,2.47
2018-07-06T10:54:11.272Z,2.40
2018-07-06T10:57:15.613Z,2.57
2018-07-06T11:00:20.041Z,2.43
2018-07-06T11:03:24.343Z,3.07
2018-07-06T11:06:28.665Z,2.10
2018-07-06T11:09:33.035Z,2.27
2018-07-06T11:12:37.545Z,2.93
2018-07-06T11:15:42.043Z,3.13
2018-07-06T11:18:46.455Z,2.80
2018-07-06T11:21:50.774Z,2.97
2018-07-06T11:24:55.198Z,3.40
2018-07-06T11:27:59.596Z,2.23
2018-07-06T11:31:03.905Z,3.50
2018-07-06T11:34:09.302Z,3.20
2018-07-06T11:37:13.724Z,2.97
2018-07-06T11:40:18.117Z,2.30
2018-07-06T11:43:22.400Z,2.50
2018-07-06T11:46:26.764Z,2.83
2018-07-06T11:49:31.098Z,2.40
2018-07-06T11:52:35.483Z,2.00
2018-07-06T11:55:39.843Z,2.37
2018-07-06T11:58:44.135Z,2.47
2018-07-06T12:01:48.456Z,2.60
2018-07-06T12:04:52.873Z,2.93
2018-07-06T12:07:57.201Z,2.37
2018-07-06T12:11:02.094Z,2.60
2018-07-06T12:14:06.469Z,2.70
2018-07-06T12:17:10.883Z,2.33
2018-07-06T12:20:15.225Z,2.37
2018-07-06T12:23:19.697Z,2.07
2018-07-06T12:26:24.037Z,1.70
2018-07-06T12:29:28.323Z,2.00
2018-07-06T12:32:32.648Z,2.37
2018-07-06T12:35:37.116Z,2.40
2018-07-06T12:38:41.408Z,2.50
2018-07-06T12:41:45.728Z,2.20
2018-07-06T12:44:50.180Z,3.00
2018-07-06T12:47:54.470Z,2.13
2018-07-06T12:50:58.857Z,2.67
2018-07-06T12:54:03.205Z,1.87
2018-07-06T12:57:07.531Z,2.73
2018-07-06T13:00:11.831Z,2.57
2018-07-06T13:03:16.135Z,1.93
2018-07-06T13:06:20.485Z,2.63
2018-07-06T13:09:24.923Z,2.70
2018-07-06T13:12:29.225Z,2.13
2018-07-06T13:15:33.546Z,2.23
2018-07-06T13:18:37.851Z,2.10
2018-07-06T13:21:42.165Z,2.37
2018-07-06T13:24:46.436Z,2.33
2018-07-06T13:27:50.820Z,2.37
2018-07-06T13:30:55.147Z,2.50
2018-07-06T13:33:59.511Z,2.10
2018-07-06T13:37:03.900Z,2.37
2018-07-06T13:40:08.437Z,2.40
2018-07-06T13:43:12.727Z,2.17
2018-07-06T13:46:17.045Z,1.80
2018-07-06T13:49:21.408Z,2.50
2018-07-06T13:52:25.788Z,2.10
2018-07-06T13:55:30.092Z,2.47
2018-07-06T13:58:34.407Z,2.67
2018-07-06T14:01:38.548Z,2.30
2018-07-06T14:04:42.820Z,2.53
2018-07-06T14:07:47.176Z,2.00
2018-07-06T14:10:51.469Z,2.00
2018-07-06T14:13:56.037Z,2.70
2018-07-06T14:17:00.721Z,2.43
2018-07-06T14:20:05.024Z,2.07
2018-07-06T14:23:10.443Z,2.97
2018-07-06T14:26:14.965Z,2.03
2018-07-06T14:29:19.276Z,1.93
2018-07-06T14:32:25.279Z,2.50
2018-07-06T14:35:29.632Z,1.70
2018-07-06T14:38:34.584Z,1.77
2018-07-06T14:41:39.875Z,2.47
2018-07-06T14:44:45.616Z,1.83
2018-07-06T14:47:50.687Z,2.00
2018-07-06T14:50:55.971Z,2.57
2018-07-06T14:54:01.271Z,2.23
2018-07-06T14:57:06.511Z,2.40
2018-07-06T15:00:11.003Z,1.97
2018-07-06T15:03:15.330Z,3.00
2018-07-06T15:06:19.646Z,2.43
2018-07-06T15:09:23.973Z,2.13
2018-07-06T15:12:28.369Z,2.23
2018-07-06T15:15:33.507Z,2.63
2018-07-06T15:18:37.897Z,2.17
2018-07-06T15:21:42.192Z,2.70
2018-07-06T15:24:46.555Z,1.87
2018-07-06T15:27:50.887Z,2.03
2018-07-06T15:30:55.380Z,1.80
2018-07-06T15:33:59.810Z,2.33
2018-07-06T15:37:04.226Z,2.53
2018-07-06T15:40:08.553Z,2.27
2018-07-06T15:43:13.204Z,2.30
2018-07-06T15:46:17.667Z,2.27
2018-07-06T15:49:22.021Z,2.50
2018-07-06T15:52:26.339Z,2.60
2018-07-06T15:55:31.534Z,2.20
2018-07-06T15:58:35.691Z,2.40
2018-07-06T16:01:39.973Z,2.70
2018-07-06T16:04:44.285Z,2.77
2018-07-06T16:07:48.615Z,2.83
2018-07-06T16:10:53.110Z,3.10
2018-07-06T16:13:57.442Z,3.00
2018-07-06T16:17:01.773Z,2.67
2018-07-06T16:20:06.211Z,2.00
2018-07-06T16:23:10.545Z,2.00
2018-07-06T16:26:14.863Z,1.80
2018-07-06T16:29:19.199Z,2.53
2018-07-06T16:32:23.643Z,2.37
2018-07-06T16:35:28.023Z,2.37
2018-07-06T16:38:32.365Z,2.53
2018-07-06T16:41:36.751Z,2.20
2018-07-06T16:44:41.057Z,2.63
2018-07-06T16:47:45.513Z,2.30
2018-07-06T16:50:49.795Z,2.60
2018-07-06T16:53:54.185Z,2.30
2018-07-06T16:56:58.444Z,2.23
2018-07-06T17:00:02.777Z,2.00
2018-07-06T17:03:07.084Z,2.70
2018-07-06T17:06:11.348Z,2.60
2018-07-06T17:09:15.760Z,2.20
2018-07-06T17:12:20.091Z,2.97
2018-07-06T17:15:24.402Z,2.20
2018-07-06T17:18:28.822Z,2.10
2018-07-06T17:21:33.096Z,2.60
2018-07-06T17:24:37.443Z,3.13
2018-07-06T17:27:42.109Z,3.03
2018-07-06T17:30:46.518Z,2.57
2018-07-06T17:33:50.898Z,3.03
2018-07-06T17:36:55.659Z,2.87
2018-07-06T17:39:59.980Z,3.10
2018-07-06T17:43:04.288Z,2.90
2018-07-06T17:46:08.628Z,2.50
2018-07-06T17:49:12.981Z,2.90
2018-07-06T17:52:17.364Z,2.30
2018-07-06T17:55:21.708Z,2.17
2018-07-06T17:58:26.027Z,2.37
2018-07-06T18:01:30.452Z,2.80
2018-07-06T18:04:34.830Z,3.10
2018-07-06T18:07:39.198Z,3.40
2018-07-06T18:10:43.549Z,2.63
2018-07-06T18:13:47.847Z,2.70
2018-07-06T18:16:52.254Z,3.00
2018-07-06T18:19:57.388Z,2.37
2018-07-06T18:23:02.445Z,3.07
2018-07-06T18:26:06.899Z,2.83
2018-07-06T18:29:11.371Z,5.20
2018-07-06T18:32:16.064Z,2.87
2018-07-06T18:35:20.452Z,3.40
2018-07-06T18:38:24.882Z,2.47
2018-07-06T18:41:29.170Z,2.70
2018-07-06T18:44:33.519Z,2.90
2018-07-06T18:47:38.010Z,2.93
2018-07-06T18:50:42.315Z,2.70
2018-07-06T18:53:46.696Z,2.50
2018-07-06T18:56:50.963Z,2.97
2018-07-06T18:59:55.300Z,2.77
2018-07-06T19:02:59.673Z,2.90
2018-07-06T19:06:03.989Z,2.80
2018-07-06T19:09:08.592Z,2.73
2018-07-06T19:12:12.864Z,2.30
2018-07-06T19:15:17.194Z,3.17
2018-07-06T19:18:21.693Z,3.47
2018-07-06T19:21:26.217Z,3.13
2018-07-06T19:24:30.656Z,2.73
2018-07-06T19:27:35.022Z,3.10
2018-07-06T19:30:39.360Z,2.50
2018-07-06T19:33:43.722Z,2.67
2018-07-06T19:36:48.020Z,2.37
2018-07-06T19:39:52.508Z,2.77
2018-07-06T19:42:56.889Z,2.20
2018-07-06T19:46:01.237Z,2.50
2018-07-06T19:49:05.631Z,3.07
2018-07-06T19:52:09.989Z,3.07
2018-07-06T19:55:14.354Z,3.50
2018-07-06T19:58:18.718Z,2.73
2018-07-06T20:01:23.052Z,2.77
2018-07-06T20:04:27.363Z,3.87
2018-07-06T20:07:31.814Z,2.30
2018-07-06T20:10:36.138Z,2.60
2018-07-06T20:13:40.542Z,2.33
2018-07-06T20:16:44.836Z,2.90
2018-07-06T20:19:49.172Z,2.53
2018-07-06T20:22:53.612Z,3.47
2018-07-06T20:25:58.117Z,2.40
2018-07-06T20:29:02.463Z,2.97
2018-07-06T20:32:06.857Z,3.43
2018-07-06T20:35:11.221Z,2.93
2018-07-06T20:38:15.631Z,3.23
2018-07-06T20:41:20.073Z,2.23
2018-07-06T20:44:24.444Z,2.43
2018-07-06T20:47:28.782Z,2.90
2018-07-06T20:50:33.107Z,3.57
2018-07-06T20:53:37.554Z,3.03
2018-07-06T20:56:41.825Z,3.03
2018-07-06T20:59:46.205Z,2.87
2018-07-06T21:02:50.509Z,2.73
2018-07-06T21:05:54.825Z,3.00
2018-07-06T21:08:59.231Z,3.13
2018-07-06T21:12:03.568Z,4.40
2018-07-06T21:15:08.017Z,3.00
2018-07-06T21:18:12.381Z,2.53
2018-07-06T21:21:16.749Z,2.90
2018-07-06T21:24:21.068Z,3.27
2018-07-06T21:27:25.332Z,3.30
2018-07-06T21:30:29.659Z,2.90
2018-07-06T21:33:33.974Z,3.47
2018-07-06T21:36:38.343Z,2.97
2018-07-06T21:39:42.743Z,3.13
2018-07-06T21:42:48.073Z,3.20
2018-07-06T21:45:52.451Z,2.73
2018-07-06T21:48:56.773Z,2.63
2018-07-06T21:52:01.155Z,3.80
2018-07-06T21:55:05.496Z,2.97
2018-07-06T21:58:09.784Z,3.73
2018-07-06T22:01:14.177Z,3.27
2018-07-06T22:04:18.536Z,3.27
2018-07-06T22:07:22.800Z,2.67
2018-07-06T22:10:27.362Z,3.03
2018-07-06T22:13:31.523Z,3.47
2018-07-06T22:16:35.962Z,3.47
2018-07-06T22:19:40.226Z,2.70
2018-07-06T22:22:44.543Z,3.20
2018-07-06T22:25:48.897Z,2.87
2018-07-06T22:28:53.378Z,3.70
2018-07-06T22:31:57.780Z,3.33
2018-07-06T22:35:02.172Z,3.50
2018-07-06T22:38:06.284Z,3.80
2018-07-06T22:41:10.634Z,3.13
2018-07-06T22:44:14.953Z,3.50
2018-07-06T22:47:19.239Z,3.00
2018-07-06T22:50:23.615Z,2.83
2018-07-06T22:53:27.892Z,3.63
2018-07-06T22:56:32.229Z,3.00
2018-07-06T22:59:36.544Z,3.53
2018-07-06T23:02:40.868Z,3.13
2018-07-06T23:05:45.243Z,3.73
2018-07-06T23:08:49.600Z,2.70
2018-07-06T23:11:53.907Z,3.33
2018-07-06T23:14:58.215Z,3.27
2018-07-06T23:18:02.582Z,3.37
2018-07-06T23:21:07.665Z,3.60
2018-07-06T23:24:12.036Z,3.87
2018-07-06T23:27:16.461Z,3.03
2018-07-06T23:30:20.802Z,3.63
2018-07-06T23:33:25.117Z,3.40
2018-07-06T23:36:29.395Z,2.90
2018-07-06T23:39:33.856Z,3.40
2018-07-06T23:42:38.649Z,3.80
2018-07-06T23:45:42.934Z,3.03
2018-07-06T23:48:47.325Z,3.20
2018-07-06T23:51:51.643Z,3.23
2018-07-06T23:54:55.924Z,3.70
2018-07-06T23:58:00.364Z,3.20
